createdAt,value
2018-10-15T00:00:47.692Z,17.30
2018-10-15T00:03:16.812Z,23.50
2018-10-15T00:05:45.927Z,57.57
2018-10-15T00:08:15.052Z,27.60
2018-10-15T00:10:44.524Z,56.43
2018-10-15T00:13:14.093Z,38.07
2018-10-15T00:15:43.294Z,49.63
2018-10-15T00:18:12.477Z,50.70
2018-10-15T00:20:41.604Z,63.10
2018-10-15T00:23:10.774Z,106.40
2018-10-15T00:25:41.247Z,222.97
2018-10-15T00:28:10.778Z,212.73
2018-10-15T00:30:40.208Z,292.47
2018-10-15T00:33:10.444Z,390.60
2018-10-15T00:35:39.586Z,399.57
2018-10-15T00:38:08.976Z,306.93
2018-10-15T00:40:38.122Z,285.93
2018-10-15T00:43:07.698Z,283.10
2018-10-15T00:45:36.851Z,317.47
2018-10-15T00:48:06.425Z,183.23
2018-10-15T00:50:35.550Z,136.93
2018-10-15T00:53:04.846Z,89.03
2018-10-15T00:55:33.974Z,65.23
2018-10-15T00:58:03.100Z,33.40
2018-10-15T01:00:32.313Z,32.40
2018-10-15T01:03:01.486Z,23.23
2018-10-15T01:05:30.633Z,22.77
2018-10-15T01:07:59.771Z,25.00
2018-10-15T01:10:30.173Z,18.70
2018-10-15T01:12:59.585Z,17.70
2018-10-15T01:15:29.462Z,20.37
2018-10-15T01:17:58.815Z,19.23
2018-10-15T01:20:28.398Z,28.00
2018-10-15T01:22:58.443Z,21.60
2018-10-15T01:25:27.783Z,22.60
2018-10-15T01:27:58.303Z,19.63
2018-10-15T01:30:27.441Z,20.40
2018-10-15T01:32:56.610Z,18.47
2018-10-15T01:35:25.796Z,19.23
2018-10-15T01:37:55.350Z,19.30
2018-10-15T01:40:24.536Z,20.20
2018-10-15T01:42:54.442Z,16.30
2018-10-15T01:45:23.588Z,14.10
2018-10-15T01:47:52.735Z,16.10
2018-10-15T01:50:21.851Z,16.80
2018-10-15T01:52:51.047Z,18.93
2018-10-15T01:55:20.175Z,17.83
2018-10-15T01:57:49.791Z,16.40
2018-10-15T02:00:19.454Z,15.63
2018-10-15T02:02:49.294Z,17.23
2018-10-15T02:05:20.731Z,15.77
2018-10-15T02:07:52.721Z,17.10
2018-10-15T02:10:24.175Z,20.13
2018-10-15T02:12:55.981Z,14.13
2018-10-15T02:15:26.267Z,19.20
2018-10-15T02:17:58.135Z,20.03
2018-10-15T02:20:29.176Z,20.17
2018-10-15T02:23:00.328Z,22.37
2018-10-15T02:25:30.100Z,21.50
2018-10-15T02:27:59.478Z,18.60
2018-10-15T02:30:28.614Z,20.67
2018-10-15T02:32:57.874Z,19.27
2018-10-15T02:35:26.995Z,18.77
2018-10-15T02:37:56.588Z,17.67
2018-10-15T02:40:25.720Z,21.97
2018-10-15T02:42:55.067Z,19.03
2018-10-15T02:45:24.766Z,19.07
2018-10-15T02:47:53.897Z,23.60
2018-10-15T02:50:23.151Z,26.53
2018-10-15T02:52:52.351Z,19.60
2018-10-15T02:55:22.203Z,22.63
2018-10-15T02:57:51.363Z,24.17
2018-10-15T03:00:20.562Z,21.37
2018-10-15T03:02:49.726Z,20.43
2018-10-15T03:05:18.839Z,22.70
2018-10-15T03:07:47.979Z,24.03
2018-10-15T03:10:17.163Z,23.30
2018-10-15T03:12:46.291Z,25.10
2018-10-15T03:15:15.559Z,17.30
2018-10-15T03:17:44.763Z,19.27
2018-10-15T03:20:13.870Z,19.50
2018-10-15T03:22:43.181Z,20.30
2018-10-15T03:25:12.517Z,20.20
2018-10-15T03:27:42.278Z,24.27
2018-10-15T03:30:12.594Z,26.73
2018-10-15T03:32:41.896Z,26.20
2018-10-15T03:35:11.791Z,26.73
2018-10-15T03:37:40.982Z,19.63
2018-10-15T03:40:10.125Z,29.10
2018-10-15T03:42:39.405Z,24.20
2018-10-15T03:45:08.813Z,23.03
2018-10-15T03:47:38.053Z,24.10
2018-10-15T03:50:07.631Z,24.03
2018-10-15T03:52:36.899Z,24.40
2018-10-15T03:55:05.935Z,18.27
2018-10-15T03:57:35.586Z,18.20
2018-10-15T04:00:06.504Z,22.40
2018-10-15T04:02:35.740Z,18.53
2018-10-15T04:05:04.809Z,14.30
2018-10-15T04:07:34.038Z,23.73
2018-10-15T04:10:03.378Z,19.70
2018-10-15T04:12:32.558Z,17.90
2018-10-15T04:15:01.856Z,16.00
2018-10-15T04:17:31.551Z,24.43
2018-10-15T04:20:01.612Z,19.17
2018-10-15T04:22:35.454Z,19.93
2018-10-15T04:25:04.587Z,29.07
2018-10-15T04:27:34.443Z,19.67
2018-10-15T04:30:04.096Z,23.70
2018-10-15T04:32:33.206Z,26.57
2018-10-15T04:35:02.327Z,22.77
2018-10-15T04:37:31.476Z,21.83
2018-10-15T04:40:00.660Z,21.73
2018-10-15T04:42:29.779Z,27.30
2018-10-15T04:44:58.950Z,22.27
2018-10-15T04:47:28.099Z,21.57
2018-10-15T04:49:57.749Z,20.80
2018-10-15T04:52:27.002Z,28.17
2018-10-15T04:54:56.293Z,27.47
2018-10-15T04:57:25.574Z,31.10
2018-10-15T04:59:54.951Z,23.00
2018-10-15T05:02:24.359Z,19.63
2018-10-15T05:04:53.739Z,14.77
2018-10-15T05:07:22.752Z,18.63
2018-10-15T05:09:51.891Z,22.47
2018-10-15T05:12:21.136Z,20.33
2018-10-15T05:14:50.567Z,21.23
2018-10-15T05:17:20.444Z,24.10
2018-10-15T05:19:50.474Z,17.87
2018-10-15T05:22:20.128Z,23.23
2018-10-15T05:24:49.422Z,17.03
2018-10-15T05:27:19.312Z,20.97
2018-10-15T05:29:48.697Z,21.83
2018-10-15T05:32:18.258Z,20.20
2018-10-15T05:34:47.706Z,18.20
2018-10-15T05:37:17.445Z,18.67
2018-10-15T05:39:46.822Z,19.47
2018-10-15T05:42:17.634Z,21.77
2018-10-15T05:44:47.635Z,20.17
2018-10-15T05:47:16.999Z,22.80
2018-10-15T05:49:46.193Z,18.50
2018-10-15T05:52:15.602Z,25.10
2018-10-15T05:54:48.832Z,23.13
2018-10-15T05:57:19.673Z,21.60
2018-10-15T05:59:48.878Z,23.70
2018-10-15T06:02:18.073Z,22.90
2018-10-15T06:04:47.268Z,28.97
2018-10-15T06:07:16.387Z,21.87
2018-10-15T06:09:45.534Z,21.33
2018-10-15T06:12:14.753Z,22.83
2018-10-15T06:14:44.088Z,23.60
2018-10-15T06:17:13.225Z,16.83
2018-10-15T06:19:42.278Z,24.87
2018-10-15T06:22:11.482Z,20.40
2018-10-15T06:24:40.687Z,21.07
2018-10-15T06:27:09.809Z,20.53
2018-10-15T06:29:38.964Z,25.73
2018-10-15T06:32:08.118Z,23.60
2018-10-15T06:34:37.307Z,19.37
2018-10-15T06:37:06.488Z,17.13
2018-10-15T06:39:35.603Z,22.47
2018-10-15T06:42:04.982Z,16.90
2018-10-15T06:44:34.115Z,14.10
2018-10-15T06:47:03.301Z,14.27
2018-10-15T06:49:32.439Z,14.13
2018-10-15T06:52:01.667Z,17.07
2018-10-15T06:54:30.935Z,16.17
2018-10-15T06:57:00.465Z,13.30
2018-10-15T06:59:29.617Z,15.97
2018-10-15T07:01:58.799Z,14.20
2018-10-15T07:04:27.939Z,14.67
2018-10-15T07:06:57.346Z,13.27
2018-10-15T07:09:27.334Z,24.23
2018-10-15T07:11:57.773Z,16.10
2018-10-15T07:14:27.845Z,9.70
2018-10-15T07:16:56.986Z,21.13
2018-10-15T07:19:26.866Z,16.43
2018-10-15T07:21:56.046Z,13.90
2018-10-15T07:24:25.154Z,12.70
2018-10-15T07:26:54.274Z,14.90
2018-10-15T07:29:23.979Z,14.90
2018-10-15T07:31:53.450Z,15.90
2018-10-15T07:34:22.728Z,13.50
2018-10-15T07:36:52.050Z,16.67
2018-10-15T07:39:21.378Z,15.80
2018-10-15T07:41:50.959Z,17.60
2018-10-15T07:44:20.134Z,12.73
2018-10-15T07:46:49.330Z,13.70
2018-10-15T07:49:18.492Z,15.50
2018-10-15T07:51:48.371Z,16.67
2018-10-15T07:54:17.606Z,15.00
2018-10-15T07:56:47.219Z,17.70
2018-10-15T07:59:16.500Z,17.33
2018-10-15T08:01:45.595Z,17.17
2018-10-15T08:04:14.760Z,20.27
2018-10-15T08:06:43.862Z,14.30
2018-10-15T08:09:13.010Z,18.47
2018-10-15T08:11:42.165Z,14.30
2018-10-15T08:14:11.417Z,14.80
2018-10-15T08:16:40.915Z,20.10
2018-10-15T08:19:10.358Z,15.33
2018-10-15T08:21:39.725Z,19.20
2018-10-15T08:24:08.939Z,17.93
2018-10-15T08:26:38.075Z,15.10
2018-10-15T08:29:07.230Z,15.30
2018-10-15T08:31:36.517Z,19.07
2018-10-15T08:34:05.970Z,14.20
2018-10-15T08:36:35.618Z,19.17
2018-10-15T08:39:07.549Z,19.80
2018-10-15T08:41:36.801Z,16.37
2018-10-15T08:44:06.578Z,19.80
2018-10-15T08:46:36.047Z,21.63
2018-10-15T08:49:05.909Z,17.87
2018-10-15T08:51:35.052Z,18.03
2018-10-15T08:54:04.159Z,18.43
2018-10-15T08:56:33.274Z,17.77
2018-10-15T08:59:02.426Z,20.90
2018-10-15T09:01:31.543Z,21.30
2018-10-15T09:04:01.462Z,17.43
2018-10-15T09:06:30.617Z,21.73
2018-10-15T09:09:00.250Z,16.67
2018-10-15T09:11:29.231Z,23.43
2018-10-15T09:13:58.347Z,20.33
2018-10-15T09:16:27.455Z,21.30
2018-10-15T09:18:56.666Z,16.90
2018-10-15T09:21:25.935Z,17.60
2018-10-15T09:23:55.103Z,18.60
2018-10-15T09:26:24.954Z,16.80
2018-10-15T09:28:54.200Z,19.47
2018-10-15T09:31:23.496Z,28.23
2018-10-15T09:33:52.921Z,23.20
2018-10-15T09:36:22.313Z,17.37
2018-10-15T09:38:51.422Z,16.10
2018-10-15T09:41:21.065Z,16.83
2018-10-15T09:43:50.220Z,19.97
2018-10-15T09:46:19.383Z,23.53
2018-10-15T09:48:48.734Z,17.90
2018-10-15T09:51:17.962Z,17.80
2018-10-15T09:53:47.147Z,15.93
2018-10-15T09:56:16.339Z,24.37
2018-10-15T09:58:45.687Z,22.73
2018-10-15T10:01:19.995Z,16.57
2018-10-15T10:03:49.621Z,16.67
2018-10-15T10:06:18.823Z,16.03
2018-10-15T10:08:48.039Z,14.80
2018-10-15T10:11:17.219Z,14.73
2018-10-15T10:13:46.443Z,16.33
2018-10-15T10:16:15.716Z,15.83
2018-10-15T10:18:45.441Z,13.70
2018-10-15T10:21:14.950Z,43.97
2018-10-15T10:23:44.140Z,12.47
2018-10-15T10:26:13.222Z,14.00
2018-10-15T10:28:43.667Z,16.33
2018-10-15T10:31:12.798Z,11.43
2018-10-15T10:34:08.037Z,14.83
2018-10-15T10:36:37.527Z,16.93
2018-10-15T10:39:10.385Z,16.83
2018-10-15T10:41:39.593Z,19.30
2018-10-15T10:44:08.730Z,12.47
2018-10-15T10:46:37.891Z,11.17
2018-10-15T10:49:07.093Z,10.57
2018-10-15T10:51:36.209Z,16.00
2018-10-15T10:54:05.402Z,11.10
2018-10-15T10:56:34.500Z,19.80
2018-10-15T10:59:03.675Z,10.90
2018-10-15T11:01:32.789Z,10.20
2018-10-15T11:04:01.923Z,10.20
2018-10-15T11:06:31.019Z,9.03
2018-10-15T11:09:00.123Z,10.47
2018-10-15T11:11:32.563Z,8.70
2018-10-15T11:14:02.633Z,10.70
2018-10-15T11:16:31.779Z,9.27
2018-10-15T11:19:00.931Z,12.47
2018-10-15T11:21:30.003Z,10.50
2018-10-15T11:23:58.815Z,9.23
2018-10-15T11:26:28.292Z,13.73
2018-10-15T11:28:57.395Z,10.20
2018-10-15T11:31:26.530Z,10.43
2018-10-15T11:33:55.678Z,13.07
2018-10-15T11:36:24.800Z,12.37
2018-10-15T11:38:53.935Z,14.73
2018-10-15T11:41:23.055Z,19.70
2018-10-15T11:43:52.216Z,7.60
2018-10-15T11:46:21.336Z,8.47
2018-10-15T11:48:50.434Z,12.23
2018-10-15T11:51:19.591Z,11.30
2018-10-15T11:53:48.651Z,9.77
2018-10-15T11:56:18.499Z,9.23
2018-10-15T11:58:47.887Z,10.30
2018-10-15T12:01:16.914Z,11.30
2018-10-15T12:03:46.006Z,11.03
2018-10-15T12:06:15.120Z,8.97
2018-10-15T12:08:44.321Z,11.00
2018-10-15T12:11:13.524Z,17.50
2018-10-15T12:13:42.568Z,9.10
2018-10-15T12:16:11.870Z,10.53
2018-10-15T12:18:40.975Z,13.30
2018-10-15T12:21:10.090Z,12.60
2018-10-15T12:23:39.539Z,10.37
2018-10-15T12:26:09.086Z,11.50
2018-10-15T12:28:38.982Z,10.37
2018-10-15T12:31:08.884Z,13.87
2018-10-15T12:33:37.975Z,12.80
2018-10-15T12:36:07.226Z,9.67
2018-10-15T12:38:36.347Z,14.20
2018-10-15T12:41:05.478Z,10.10
2018-10-15T12:43:35.035Z,10.33
2018-10-15T12:46:04.166Z,12.00
2018-10-15T12:48:33.466Z,10.77
2018-10-15T12:51:02.599Z,12.37
2018-10-15T12:53:31.824Z,16.27
2018-10-15T12:56:00.560Z,13.03
2018-10-15T12:58:29.699Z,13.13
2018-10-15T13:00:58.831Z,11.63
2018-10-15T13:03:27.971Z,8.40
2018-10-15T13:05:57.222Z,11.93
2018-10-15T13:08:26.511Z,13.20
2018-10-15T13:10:55.626Z,11.50
2018-10-15T13:13:25.389Z,9.00
2018-10-15T13:15:54.492Z,12.30
2018-10-15T13:18:23.948Z,10.97
2018-10-15T13:20:53.070Z,10.60
2018-10-15T13:23:22.275Z,17.80
2018-10-15T13:25:51.410Z,10.37
2018-10-15T13:28:20.206Z,9.43
2018-10-15T13:30:49.432Z,9.93
2018-10-15T13:33:18.534Z,9.33
2018-10-15T13:35:48.107Z,11.10
2018-10-15T13:38:16.922Z,11.33
2018-10-15T13:40:46.235Z,9.50
2018-10-15T13:43:15.414Z,11.00
2018-10-15T13:45:44.530Z,9.27
2018-10-15T13:48:13.642Z,8.80
2018-10-15T13:50:42.799Z,11.90
2018-10-15T13:53:12.206Z,11.03
2018-10-15T13:55:41.745Z,10.30
2018-10-15T13:58:10.958Z,11.20
2018-10-15T14:00:41.482Z,11.50
2018-10-15T14:03:12.386Z,9.27
2018-10-15T14:05:41.658Z,15.90
2018-10-15T14:08:10.875Z,9.70
2018-10-15T14:10:40.192Z,11.87
2018-10-15T14:13:09.546Z,10.03
2018-10-15T14:15:38.890Z,15.30
2018-10-15T14:18:08.630Z,9.37
2018-10-15T14:20:39.261Z,13.60
2018-10-15T14:23:09.671Z,15.93
2018-10-15T14:25:38.782Z,11.50
2018-10-15T14:28:07.892Z,11.10
2018-10-15T14:30:37.298Z,8.70
2018-10-15T14:33:06.613Z,15.33
2018-10-15T14:35:35.710Z,13.83
2018-10-15T14:38:04.557Z,11.57
2018-10-15T14:40:33.695Z,10.63
2018-10-15T14:43:03.066Z,9.00
2018-10-15T14:45:32.171Z,8.80
2018-10-15T14:48:01.681Z,8.20
2018-10-15T14:50:30.906Z,7.73
2018-10-15T14:53:00.286Z,8.73
2018-10-15T14:55:29.650Z,10.60
2018-10-15T14:57:58.902Z,9.60
2018-10-15T15:00:27.988Z,9.70
2018-10-15T15:02:57.074Z,7.33
2018-10-15T15:05:26.999Z,9.10
2018-10-15T15:07:57.771Z,7.13
2018-10-15T15:10:44.743Z,9.13
2018-10-15T15:13:31.650Z,8.93
2018-10-15T15:16:01.022Z,10.27
2018-10-15T15:18:30.402Z,8.57
2018-10-15T15:21:00.057Z,15.57
2018-10-15T15:23:29.305Z,8.87
2018-10-15T15:25:58.614Z,7.47
2018-10-15T15:28:27.852Z,8.97
2018-10-15T15:30:57.174Z,8.80
2018-10-15T15:33:26.475Z,17.70
2018-10-15T15:35:55.663Z,8.90
2018-10-15T15:38:24.845Z,7.30
2018-10-15T15:40:54.023Z,7.63
2018-10-15T15:43:23.359Z,12.57
2018-10-15T15:45:52.628Z,9.90
2018-10-15T15:48:22.599Z,8.20
2018-10-15T15:50:51.838Z,9.70
2018-10-15T15:53:21.091Z,8.60
2018-10-15T15:55:50.166Z,9.53
2018-10-15T15:58:19.294Z,9.50
2018-10-15T16:00:48.402Z,11.57
2018-10-15T16:03:17.542Z,9.40
2018-10-15T16:05:47.114Z,9.93
2018-10-15T16:08:16.224Z,11.73
2018-10-15T16:10:45.408Z,11.73
2018-10-15T16:13:14.494Z,15.83
2018-10-15T16:15:43.934Z,13.67
2018-10-15T16:18:13.686Z,11.20
2018-10-15T16:20:43.022Z,14.13
2018-10-15T16:23:12.215Z,13.07
2018-10-15T16:25:40.889Z,18.77
2018-10-15T16:28:11.697Z,12.67
2018-10-15T16:30:40.810Z,8.93
2018-10-15T16:33:10.446Z,13.13
2018-10-15T16:35:39.619Z,11.67
2018-10-15T16:38:09.379Z,10.60
2018-10-15T16:40:38.829Z,12.03
2018-10-15T16:43:07.957Z,12.87
2018-10-15T16:45:37.103Z,17.03
2018-10-15T16:48:07.244Z,14.40
2018-10-15T16:50:36.522Z,16.77
2018-10-15T16:53:05.939Z,15.50
2018-10-15T16:55:35.067Z,16.70
2018-10-15T16:58:04.211Z,20.10
2018-10-15T17:00:33.755Z,20.10
2018-10-15T17:03:02.895Z,16.87
2018-10-15T17:05:32.870Z,18.17
2018-10-15T17:08:02.733Z,31.27
2018-10-15T17:10:31.839Z,20.70
2018-10-15T17:13:00.974Z,20.07
2018-10-15T17:15:30.321Z,25.00
2018-10-15T17:18:00.000Z,18.40
2018-10-15T17:20:30.272Z,15.87
2018-10-15T17:22:59.543Z,21.83
2018-10-15T17:25:28.933Z,19.20
2018-10-15T17:27:58.266Z,19.80
2018-10-15T17:30:27.398Z,17.50
2018-10-15T17:32:57.611Z,24.77
2018-10-15T17:35:26.462Z,27.47
2018-10-15T17:37:56.471Z,18.97
2018-10-15T17:40:26.022Z,17.90
2018-10-15T17:42:56.299Z,21.57
2018-10-15T17:45:25.750Z,23.33
2018-10-15T17:47:55.390Z,23.23
2018-10-15T17:50:25.471Z,21.27
2018-10-15T17:52:55.330Z,22.57
2018-10-15T17:55:24.421Z,18.43
2018-10-15T17:57:54.415Z,15.73
2018-10-15T18:00:28.130Z,19.87
2018-10-15T18:02:57.599Z,15.00
2018-10-15T18:05:27.495Z,18.40
2018-10-15T18:07:56.874Z,18.17
2018-10-15T18:10:25.994Z,19.10
2018-10-15T18:12:56.005Z,14.47
2018-10-15T18:15:25.310Z,16.77
2018-10-15T18:17:54.710Z,17.50
2018-10-15T18:20:24.847Z,12.60
2018-10-15T18:22:54.005Z,15.00
2018-10-15T18:25:23.185Z,19.13
2018-10-15T18:27:52.566Z,22.10
2018-10-15T18:30:21.694Z,19.83
2018-10-15T18:32:50.790Z,16.50
2018-10-15T18:35:20.638Z,19.43
2018-10-15T18:37:50.654Z,19.33
2018-10-15T18:40:20.014Z,18.43
2018-10-15T18:42:49.686Z,23.93
2018-10-15T18:45:18.908Z,12.10
2018-10-15T18:47:48.178Z,20.63
2018-10-15T18:50:18.762Z,19.77
2018-10-15T18:52:48.145Z,21.80
2018-10-15T18:55:17.359Z,17.23
2018-10-15T18:57:46.698Z,22.27
2018-10-15T19:00:15.953Z,19.90
2018-10-15T19:02:46.286Z,15.20
2018-10-15T19:05:16.134Z,16.80
2018-10-15T19:07:45.919Z,15.97
2018-10-15T19:10:15.265Z,14.50
2018-10-15T19:12:44.414Z,19.13
2018-10-15T19:15:13.562Z,18.00
2018-10-15T19:17:42.874Z,15.43
2018-10-15T19:20:14.482Z,14.90
2018-10-15T19:22:44.379Z,13.90
2018-10-15T19:25:13.438Z,14.00
2018-10-15T19:27:42.560Z,13.67
2018-10-15T19:30:13.296Z,15.60
2018-10-15T19:32:42.867Z,15.70
2018-10-15T19:35:13.672Z,14.30
2018-10-15T19:37:43.008Z,14.90
2018-10-15T19:40:13.207Z,16.50
2018-10-15T19:42:43.067Z,12.37
2018-10-15T19:45:12.316Z,13.10
2018-10-15T19:47:41.599Z,17.33
2018-10-15T19:50:10.710Z,15.10
2018-10-15T19:52:39.890Z,19.50
2018-10-15T19:55:09.128Z,15.10
2018-10-15T19:57:38.501Z,20.37
2018-10-15T20:00:10.810Z,12.60
2018-10-15T20:02:40.115Z,16.90
2018-10-15T20:05:09.914Z,15.73
2018-10-15T20:07:41.172Z,12.50
2018-10-15T20:10:13.079Z,17.93
2018-10-15T20:12:43.235Z,19.43
2018-10-15T20:15:12.301Z,18.00
2018-10-15T20:17:42.018Z,15.77
2018-10-15T20:20:12.290Z,16.17
2018-10-15T20:22:41.581Z,16.87
2018-10-15T20:25:11.871Z,13.30
2018-10-15T20:27:41.094Z,18.20
2018-10-15T20:30:11.689Z,14.30
2018-10-15T20:32:41.101Z,16.80
2018-10-15T20:35:11.737Z,19.30
2018-10-15T20:37:41.032Z,15.67
2018-10-15T20:40:11.236Z,21.17
2018-10-15T20:42:40.469Z,19.30
2018-10-15T20:45:09.792Z,19.47
2018-10-15T20:47:39.245Z,16.23
2018-10-15T20:50:07.805Z,19.70
2018-10-15T20:52:38.112Z,17.23
2018-10-15T20:55:06.115Z,19.60
2018-10-15T20:57:35.687Z,17.13
2018-10-15T21:00:03.781Z,19.00
2018-10-15T21:02:33.090Z,18.70
2018-10-15T21:05:02.274Z,18.57
2018-10-15T21:07:31.494Z,17.83
2018-10-15T21:10:01.306Z,19.63
2018-10-15T21:12:31.050Z,19.50
2018-10-15T21:15:00.264Z,23.07
2018-10-15T21:17:30.027Z,19.20
2018-10-15T21:19:59.660Z,20.13
2018-10-15T21:22:29.565Z,18.30
2018-10-15T21:24:59.317Z,16.17
2018-10-15T21:27:28.725Z,20.33
2018-10-15T21:29:58.516Z,19.97
2018-10-15T21:32:27.706Z,18.60
2018-10-15T21:34:56.831Z,15.00
2018-10-15T21:37:26.010Z,16.20
2018-10-15T21:39:55.431Z,20.63
2018-10-15T21:42:25.223Z,15.53
2018-10-15T21:44:55.088Z,20.83
2018-10-15T21:47:24.978Z,18.53
2018-10-15T21:49:54.819Z,13.10
2018-10-15T21:52:24.191Z,16.27
2018-10-15T21:54:53.678Z,14.03
2018-10-15T21:57:23.187Z,19.23
2018-10-15T21:59:52.910Z,15.87
2018-10-15T22:02:22.194Z,18.00
2018-10-15T22:04:51.913Z,21.70
2018-10-15T22:07:21.807Z,18.50
2018-10-15T22:09:56.187Z,15.13
2018-10-15T22:12:25.382Z,18.90
2018-10-15T22:14:54.547Z,18.20
2018-10-15T22:17:23.950Z,18.10
2018-10-15T22:19:53.073Z,18.93
2018-10-15T22:22:22.202Z,18.80
2018-10-15T22:24:51.766Z,19.83
2018-10-15T22:27:20.933Z,18.70
2018-10-15T22:29:50.153Z,16.17
2018-10-15T22:32:19.971Z,18.80
2018-10-15T22:34:49.175Z,24.97
2018-10-15T22:37:18.514Z,17.43
2018-10-15T22:39:47.753Z,17.90
2018-10-15T22:42:17.006Z,15.53
2018-10-15T22:44:46.246Z,21.63
2018-10-15T22:47:15.432Z,20.10
2018-10-15T22:49:44.631Z,20.60
2018-10-15T22:52:13.932Z,19.93
2018-10-15T22:54:43.635Z,19.07
2018-10-15T22:57:13.017Z,18.33
2018-10-15T22:59:42.982Z,21.63
2018-10-15T23:02:12.851Z,24.10
2018-10-15T23:04:42.763Z,22.87
2018-10-15T23:07:12.666Z,18.63
2018-10-15T23:09:42.612Z,21.63
2018-10-15T23:12:12.945Z,14.40
2018-10-15T23:14:42.663Z,20.37
2018-10-15T23:17:12.078Z,22.00
2018-10-15T23:19:41.614Z,19.17
2018-10-15T23:22:11.527Z,21.77
2018-10-15T23:24:42.813Z,28.97
2018-10-15T23:27:11.950Z,27.57
2018-10-15T23:29:41.153Z,18.23
2018-10-15T23:32:10.338Z,21.60
2018-10-15T23:34:39.470Z,20.73
2018-10-15T23:37:08.716Z,28.00
2018-10-15T23:39:37.473Z,24.87
2018-10-15T23:42:07.038Z,21.60
2018-10-15T23:44:36.196Z,24.30
2018-10-15T23:47:05.675Z,22.43
2018-10-15T23:49:34.794Z,21.63
2018-10-15T23:52:03.902Z,19.33
2018-10-15T23:54:33.075Z,17.83
2018-10-15T23:57:02.870Z,22.80
2018-10-15T23:59:32.030Z,21.03
